Time;durP1;ratioP1;P1;durP2;ratioP2;P2;SDS_P1;SDS_P2;PMS_P1;PMS_P2;Temp;Humidity;BMP_temperature;BMP_pressure;BME280_temperature;BME280_humidity;BME280_pressure;Samples;Min_cycle;Max_cycle;Signal;HPM_P1;HPM_P2
2021/12/18 00:00:00;;;;;;;0.55;0.55;;;;;;;;;;1852723;77;26343;-49
2021/12/18 00:02:27;;;;;;;0.37;0.37;;;;;;;;;;1854780;76;26254;-47
2021/12/18 00:04:55;;;;;;;0.57;0.57;;;;;;;;;;1865381;77;26391;-47
2021/12/18 00:07:22;;;;;;;1.10;0.37;;;;;;;;;;1867175;76;26420;-47
2021/12/18 00:09:52;;;;;;;0.50;0.40;;;;;;;;;;1872880;72;50578;-83
2021/12/18 00:12:18;;;;;;;1.40;0.40;;;;;;;;;;1872487;74;26643;-82
2021/12/18 00:14:45;;;;;;;0.30;0.30;;;;;;;;;;1895552;74;26285;-82
2021/12/18 00:17:13;;;;;;;0.60;0.40;;;;;;;;;;1892763;76;26285;-82
2021/12/18 00:19:40;;;;;;;1.55;0.53;;;;;;;;;;1910942;74;26223;-82
2021/12/18 00:22:08;;;;;;;0.40;0.40;;;;;;;;;;1900209;74;26267;-81
2021/12/18 00:24:35;;;;;;;0.40;0.40;;;;;;;;;;1924633;74;26285;-81
2021/12/18 00:27:02;;;;;;;0.40;0.40;;;;;;;;;;1891409;76;26277;-81
2021/12/18 00:29:30;;;;;;;0.35;0.35;;;;;;;;;;1891667;76;26964;-81
2021/12/18 00:31:57;;;;;;;0.40;0.40;;;;;;;;;;1891492;74;26355;-81
2021/12/18 00:34:24;;;;;;;0.70;0.40;;;;;;;;;;1891690;74;26323;-81
2021/12/18 00:36:52;;;;;;;0.30;0.30;;;;;;;;;;1897355;74;26273;-83
2021/12/18 00:39:19;;;;;;;0.40;0.40;;;;;;;;;;1891747;74;26809;-81
2021/12/18 00:42:07;;;;;;;0.40;0.40;;;;;;;;;;1891795;74;26329;-82
2021/12/18 00:44:18;;;;;;;0.30;0.30;;;;;;;;;;1886553;74;26289;-82
2021/12/18 00:46:46;;;;;;;0.88;0.40;;;;;;;;;;1891371;74;26351;-82
2021/12/18 00:49:15;;;;;;;0.30;0.30;;;;;;;;;;1893297;74;26240;-81
2021/12/18 00:51:43;;;;;;;0.57;0.50;;;;;;;;;;1891806;74;26291;-82
2021/12/18 00:54:11;;;;;;;0.50;0.50;;;;;;;;;;1889671;74;26236;-83
2021/12/18 00:56:38;;;;;;;0.40;0.40;;;;;;;;;;1890894;74;26207;-82
2021/12/18 00:59:05;;;;;;;0.68;0.53;;;;;;;;;;1891552;74;26311;-81
2021/12/18 01:01:33;;;;;;;0.60;0.40;;;;;;;;;;1896115;74;26249;-81
2021/12/18 01:04:00;;;;;;;0.40;0.40;;;;;;;;;;1890704;74;26750;-82
2021/12/18 01:06:28;;;;;;;0.55;0.40;;;;;;;;;;1896143;74;26308;-81
2021/12/18 01:08:57;;;;;;;0.30;0.30;;;;;;;;;;1891537;74;26254;-81
2021/12/18 01:16:42;;;;;;;0.57;0.57;;;;;;;;;;1857957;77;26347;-82
2021/12/18 01:24:32;;;;;;;0.60;0.50;;;;;;;;;;1807245;77;26769;-82
2021/12/18 01:26:59;;;;;;;0.28;0.28;;;;;;;;;;1814642;77;26223;-82
2021/12/18 01:29:26;;;;;;;0.30;0.30;;;;;;;;;;1845299;74;26291;-82
2021/12/18 01:31:54;;;;;;;0.40;0.30;;;;;;;;;;1893143;74;26349;-82
2021/12/18 01:34:21;;;;;;;0.30;0.30;;;;;;;;;;1892524;74;26238;-82
2021/12/18 01:36:48;;;;;;;0.40;0.40;;;;;;;;;;1887930;74;27179;-82
2021/12/18 01:39:16;;;;;;;0.65;0.40;;;;;;;;;;1891788;74;26309;-81
2021/12/18 01:42:25;;;;;;;0.33;0.33;;;;;;;;;;1891763;74;26329;-82
2021/12/18 01:45:06;;;;;;;0.33;0.33;;;;;;;;;;1888363;74;26352;-82
2021/12/18 01:47:03;;;;;;;0.40;0.40;;;;;;;;;;1867760;74;26298;-80
2021/12/18 01:52:15;;;;;;;0.40;0.40;;;;;;;;;;1890501;74;26290;-82
2021/12/18 01:54:30;;;;;;;0.20;0.20;;;;;;;;;;1885750;74;26294;-81
2021/12/18 01:56:59;;;;;;;0.37;0.37;;;;;;;;;;1889940;74;26318;-82
2021/12/18 01:59:34;;;;;;;0.30;0.30;;;;;;;;;;1893257;74;26397;-81
2021/12/18 02:02:01;;;;;;;0.30;0.30;;;;;;;;;;1891129;74;26625;-81
2021/12/18 02:04:29;;;;;;;0.40;0.40;;;;;;;;;;1890458;74;26343;-80
2021/12/18 02:06:58;;;;;;;0.82;0.40;;;;;;;;;;1897386;74;26296;-81
2021/12/18 02:09:31;;;;;;;0.35;0.35;;;;;;;;;;1891935;74;26304;-81
2021/12/18 02:11:54;;;;;;;0.30;0.30;;;;;;;;;;1899553;74;26441;-81
2021/12/18 02:19:31;;;;;;;1.02;0.33;;;;;;;;;;1898422;74;26378;-81
2021/12/18 02:19:51;;;;;;;0.30;0.30;;;;;;;;;;1901385;74;26300;-81
2021/12/18 02:22:07;;;;;;;0.35;0.35;;;;;;;;;;1896738;74;26331;-82
2021/12/18 02:24:35;;;;;;;0.20;0.20;;;;;;;;;;1899046;74;26422;-81
2021/12/18 02:27:02;;;;;;;0.37;0.30;;;;;;;;;;1914407;74;26343;-81
2021/12/18 02:29:31;;;;;;;0.30;0.30;;;;;;;;;;1901368;75;26334;-81
2021/12/18 02:31:58;;;;;;;0.65;0.30;;;;;;;;;;1902015;75;26356;-81
2021/12/18 02:34:30;;;;;;;0.40;0.40;;;;;;;;;;1901803;75;26285;-81
2021/12/18 02:37:01;;;;;;;0.20;0.20;;;;;;;;;;1901322;74;26318;-81
2021/12/18 02:39:40;;;;;;;1.07;0.30;;;;;;;;;;1888835;74;26264;-81
2021/12/18 02:42:08;;;;;;;0.30;0.30;;;;;;;;;;1901317;74;26316;-84
2021/12/18 02:44:25;;;;;;;0.17;0.17;;;;;;;;;;1918432;74;26311;-80
2021/12/18 02:46:52;;;;;;;0.30;0.30;;;;;;;;;;1926844;74;26242;-80
2021/12/18 02:49:19;;;;;;;0.30;0.30;;;;;;;;;;1927076;74;26315;-80
2021/12/18 02:51:47;;;;;;;0.20;0.20;;;;;;;;;;1926904;74;26395;-81
2021/12/18 02:54:14;;;;;;;0.23;0.23;;;;;;;;;;1926639;74;26199;-81
2021/12/18 02:56:41;;;;;;;0.28;0.28;;;;;;;;;;1926181;74;26190;-80
2021/12/18 02:59:09;;;;;;;1.85;0.30;;;;;;;;;;1923425;74;26316;-81
2021/12/18 03:01:38;;;;;;;0.30;0.30;;;;;;;;;;1918437;75;26430;-81
2021/12/18 03:04:17;;;;;;;0.20;0.20;;;;;;;;;;1918698;75;26254;-82
2021/12/18 03:06:44;;;;;;;0.13;0.13;;;;;;;;;;1917371;75;26853;-84
2021/12/18 03:25:29;;;;;;;0.20;0.20;;;;;;;;;;1896903;76;26834;-80
2021/12/18 03:27:51;;;;;;;0.25;0.25;;;;;;;;;;1906699;74;26903;-80
2021/12/18 03:30:19;;;;;;;0.30;0.30;;;;;;;;;;1897314;74;26241;-81
2021/12/18 03:32:46;;;;;;;0.30;0.30;;;;;;;;;;1897033;75;26256;-81
2021/12/18 03:35:15;;;;;;;0.30;0.30;;;;;;;;;;1897633;76;26248;-81
2021/12/18 03:37:43;;;;;;;0.25;0.25;;;;;;;;;;1897026;76;26256;-81
2021/12/18 03:40:11;;;;;;;0.40;0.20;;;;;;;;;;1895958;74;26190;-81
2021/12/18 03:42:39;;;;;;;0.33;0.33;;;;;;;;;;1865099;77;26291;-81
2021/12/18 03:45:08;;;;;;;0.55;0.30;;;;;;;;;;1864814;77;26279;-81
2021/12/18 03:47:35;;;;;;;0.17;0.17;;;;;;;;;;1889973;75;26286;-82
2021/12/18 03:50:03;;;;;;;0.10;0.10;;;;;;;;;;1915969;75;26238;-81
2021/12/18 03:52:30;;;;;;;0.30;0.30;;;;;;;;;;1915964;75;26269;-81
2021/12/18 03:54:59;;;;;;;0.30;0.30;;;;;;;;;;1915764;75;26358;-81
2021/12/18 03:57:27;;;;;;;0.25;0.25;;;;;;;;;;1901339;75;25776;-82
2021/12/18 03:59:54;;;;;;;0.20;0.20;;;;;;;;;;1917259;74;26256;-80
2021/12/18 04:02:22;;;;;;;0.30;0.30;;;;;;;;;;1925226;74;26276;-81
2021/12/18 04:04:49;;;;;;;0.40;0.40;;;;;;;;;;1925011;74;26253;-81
2021/12/18 04:07:16;;;;;;;0.30;0.30;;;;;;;;;;1925121;74;26538;-80
2021/12/18 04:09:44;;;;;;;0.00;0.00;;;;;;;;;;1898502;74;26465;-80
2021/12/18 04:12:11;;;;;;;0.20;0.20;;;;;;;;;;1897260;75;26283;-82
2021/12/18 04:14:38;;;;;;;0.23;0.23;;;;;;;;;;1897465;76;26256;-81
2021/12/18 04:17:06;;;;;;;0.30;0.30;;;;;;;;;;1897531;76;26346;-81
2021/12/18 04:19:33;;;;;;;0.20;0.20;;;;;;;;;;1897551;76;26625;-81
2021/12/18 04:22:00;;;;;;;0.20;0.20;;;;;;;;;;1897662;75;26268;-81
2021/12/18 04:24:28;;;;;;;0.23;0.23;;;;;;;;;;1897830;75;26273;-83
2021/12/18 04:26:55;;;;;;;0.20;0.20;;;;;;;;;;1897482;76;26325;-81
2021/12/18 04:29:23;;;;;;;0.20;0.20;;;;;;;;;;1897174;75;26363;-81
2021/12/18 04:31:50;;;;;;;0.20;0.20;;;;;;;;;;1897680;75;26735;-81
2021/12/18 04:34:17;;;;;;;0.33;0.13;;;;;;;;;;1897868;75;26295;-81
2021/12/18 04:36:45;;;;;;;0.20;0.20;;;;;;;;;;1897819;75;26299;-81
2021/12/18 04:39:12;;;;;;;0.10;0.10;;;;;;;;;;1861748;77;26278;-81
2021/12/18 04:41:49;;;;;;;1.17;0.20;;;;;;;;;;1861572;76;26661;-81
2021/12/18 04:44:11;;;;;;;0.28;0.28;;;;;;;;;;1830652;78;26281;-81
2021/12/18 04:46:38;;;;;;;0.20;0.20;;;;;;;;;;1861703;77;26325;-81
2021/12/18 04:49:06;;;;;;;0.20;0.20;;;;;;;;;;1825023;78;26320;-81
2021/12/18 04:51:33;;;;;;;0.20;0.20;;;;;;;;;;1848291;78;26253;-82
2021/12/18 04:54:01;;;;;;;0.20;0.20;;;;;;;;;;1848484;77;26245;-81
2021/12/18 04:56:28;;;;;;;0.20;0.20;;;;;;;;;;1849521;75;26275;-81
2021/12/18 04:59:07;;;;;;;0.17;0.17;;;;;;;;;;1848112;74;26277;-80
2021/12/18 05:01:38;;;;;;;0.20;0.20;;;;;;;;;;1844498;78;26522;-81
2021/12/18 05:04:06;;;;;;;0.10;0.10;;;;;;;;;;1844570;78;26255;-80
2021/12/18 05:06:36;;;;;;;0.30;0.30;;;;;;;;;;1846772;76;26184;-81
2021/12/18 05:09:02;;;;;;;0.37;0.17;;;;;;;;;;1838236;76;26309;-81
2021/12/18 05:11:29;;;;;;;0.20;0.20;;;;;;;;;;1856173;77;26254;-81
2021/12/18 05:13:56;;;;;;;0.20;0.20;;;;;;;;;;1865863;75;26340;-81
2021/12/18 05:16:24;;;;;;;0.20;0.20;;;;;;;;;;1864587;77;26862;-80
2021/12/18 05:18:51;;;;;;;0.15;0.15;;;;;;;;;;1849421;77;26212;-80
2021/12/18 05:21:18;;;;;;;0.20;0.10;;;;;;;;;;1820329;78;26309;-80
2021/12/18 05:23:46;;;;;;;0.10;0.10;;;;;;;;;;1864341;77;26279;-80
2021/12/18 05:26:13;;;;;;;0.20;0.20;;;;;;;;;;1863563;77;26198;-81
2021/12/18 05:28:40;;;;;;;0.20;0.20;;;;;;;;;;1831467;78;26334;-83
2021/12/18 05:31:09;;;;;;;0.20;0.20;;;;;;;;;;1832140;78;26271;-81
2021/12/18 05:33:37;;;;;;;0.20;0.20;;;;;;;;;;1832440;78;26303;-81
2021/12/18 05:36:23;;;;;;;0.13;0.13;;;;;;;;;;1863629;77;26260;-80
2021/12/18 05:38:33;;;;;;;0.10;0.10;;;;;;;;;;1859753;77;26257;-81
2021/12/18 05:41:00;;;;;;;0.20;0.20;;;;;;;;;;1864680;77;26230;-80
2021/12/18 05:43:28;;;;;;;0.20;0.20;;;;;;;;;;1877523;75;26286;-80
2021/12/18 05:45:55;;;;;;;0.20;0.20;;;;;;;;;;1899849;75;26374;-81
2021/12/18 05:48:22;;;;;;;0.20;0.20;;;;;;;;;;1891057;75;26741;-80
2021/12/18 05:50:50;;;;;;;0.10;0.10;;;;;;;;;;1833556;77;26306;-80
2021/12/18 05:53:18;;;;;;;1.27;0.53;;;;;;;;;;1832039;78;26258;-81
2021/12/18 05:55:45;;;;;;;0.25;0.25;;;;;;;;;;1832967;78;26295;-80
2021/12/18 05:58:12;;;;;;;0.20;0.20;;;;;;;;;;1847859;77;26664;-80
2021/12/18 06:00:40;;;;;;;0.20;0.20;;;;;;;;;;1862672;77;26198;-80
2021/12/18 06:03:07;;;;;;;0.23;0.23;;;;;;;;;;1862890;77;26311;-80
2021/12/18 06:05:34;;;;;;;0.20;0.20;;;;;;;;;;1862736;77;26878;-80
2021/12/18 06:08:03;;;;;;;0.20;0.20;;;;;;;;;;1868320;76;26729;-80
2021/12/18 06:10:33;;;;;;;0.10;0.10;;;;;;;;;;1883513;76;26688;-81
2021/12/18 06:13:02;;;;;;;0.20;0.20;;;;;;;;;;1862018;76;26360;-82
2021/12/18 06:15:29;;;;;;;0.62;0.10;;;;;;;;;;1815508;79;26358;-82
2021/12/18 06:17:56;;;;;;;0.20;0.20;;;;;;;;;;1796166;80;26338;-82
2021/12/18 06:20:24;;;;;;;0.10;0.10;;;;;;;;;;1817809;79;26277;-81
2021/12/18 06:22:52;;;;;;;0.30;0.30;;;;;;;;;;1857930;77;26304;-81
2021/12/18 06:25:19;;;;;;;0.20;0.20;;;;;;;;;;1857533;77;26683;-80
2021/12/18 06:27:47;;;;;;;0.55;0.20;;;;;;;;;;1880206;76;26241;-81
2021/12/18 06:30:17;;;;;;;0.20;0.20;;;;;;;;;;1889410;76;27042;-81
2021/12/18 06:32:43;;;;;;;0.13;0.13;;;;;;;;;;1890315;76;26380;-81
2021/12/18 06:35:11;;;;;;;0.20;0.20;;;;;;;;;;1890732;76;26289;-81
2021/12/18 06:37:38;;;;;;;0.17;0.17;;;;;;;;;;1890852;76;26611;-81
2021/12/18 06:40:06;;;;;;;0.75;0.20;;;;;;;;;;1890982;76;26277;-81
2021/12/18 06:42:34;;;;;;;0.20;0.20;;;;;;;;;;1891029;76;26301;-82
2021/12/18 06:45:01;;;;;;;0.53;0.20;;;;;;;;;;1891229;76;26825;-81
2021/12/18 06:47:28;;;;;;;0.17;0.17;;;;;;;;;;1891672;76;26725;-81
2021/12/18 06:49:56;;;;;;;0.13;0.13;;;;;;;;;;1889154;75;26872;-81
2021/12/18 06:52:23;;;;;;;0.20;0.20;;;;;;;;;;1894719;74;26266;-81
2021/12/18 06:54:50;;;;;;;0.20;0.20;;;;;;;;;;1894423;75;26281;-81
2021/12/18 06:57:22;;;;;;;0.10;0.10;;;;;;;;;;1882139;76;26671;-81
2021/12/18 06:59:46;;;;;;;0.20;0.20;;;;;;;;;;1887744;76;26375;-82
2021/12/18 07:02:14;;;;;;;0.20;0.20;;;;;;;;;;1891926;76;26270;-81
2021/12/18 07:04:41;;;;;;;0.13;0.13;;;;;;;;;;1891819;76;26242;-81
2021/12/18 07:07:08;;;;;;;0.10;0.10;;;;;;;;;;1891730;76;26745;-84
2021/12/18 07:09:36;;;;;;;0.13;0.13;;;;;;;;;;1891630;75;26363;-82
2021/12/18 07:12:03;;;;;;;0.10;0.10;;;;;;;;;;1868280;76;26282;-81
2021/12/18 07:14:30;;;;;;;0.20;0.20;;;;;;;;;;1861101;76;26288;-82
2021/12/18 07:16:57;;;;;;;0.20;0.20;;;;;;;;;;1861650;76;26675;-83
2021/12/18 07:19:26;;;;;;;0.17;0.17;;;;;;;;;;1880697;76;26356;-82
2021/12/18 07:21:53;;;;;;;0.10;0.10;;;;;;;;;;1880448;76;26325;-83
2021/12/18 07:24:21;;;;;;;0.30;0.30;;;;;;;;;;1855414;77;26260;-82
2021/12/18 07:26:48;;;;;;;0.10;0.10;;;;;;;;;;1863420;75;26684;-81
2021/12/18 07:29:15;;;;;;;0.10;0.10;;;;;;;;;;1894092;76;26244;-81
2021/12/18 07:31:43;;;;;;;0.13;0.13;;;;;;;;;;1894383;76;26275;-81
2021/12/18 07:34:10;;;;;;;0.17;0.17;;;;;;;;;;1894428;76;26314;-81
2021/12/18 07:36:37;;;;;;;0.10;0.10;;;;;;;;;;1895173;76;26205;-81
2021/12/18 07:39:05;;;;;;;0.15;0.15;;;;;;;;;;1894516;76;26259;-82
2021/12/18 07:41:32;;;;;;;0.17;0.15;;;;;;;;;;1895115;76;26266;-81
2021/12/18 07:43:59;;;;;;;0.30;0.30;;;;;;;;;;1895139;76;26286;-81
2021/12/18 07:46:26;;;;;;;0.20;0.20;;;;;;;;;;1893964;75;26277;-81
2021/12/18 07:48:54;;;;;;;0.10;0.00;;;;;;;;;;1887155;75;27373;-81
2021/12/18 07:51:21;;;;;;;1.07;0.20;;;;;;;;;;1885701;76;26234;-80
2021/12/18 07:53:48;;;;;;;0.13;0.13;;;;;;;;;;1887232;74;26249;-81
2021/12/18 07:56:16;;;;;;;0.10;0.10;;;;;;;;;;1895163;76;26262;-80
2021/12/18 07:58:43;;;;;;;0.28;0.28;;;;;;;;;;1879480;76;26298;-82
2021/12/18 08:01:10;;;;;;;0.47;0.25;;;;;;;;;;1894917;76;26340;-84
2021/12/18 08:06:04;;;;;;;1.77;0.20;;;;;;;;;;1938564;74;27384;-47
2021/12/18 08:08:32;;;;;;;0.20;0.20;;;;;;;;;;1914098;75;26286;-46
2021/12/18 08:10:59;;;;;;;0.20;0.20;;;;;;;;;;1908139;75;26242;-45
2021/12/18 08:13:26;;;;;;;1.02;0.20;;;;;;;;;;1888662;75;26270;-43
2021/12/18 08:15:54;;;;;;;0.95;0.20;;;;;;;;;;1870892;76;26296;-45
2021/12/18 08:18:21;;;;;;;0.20;0.20;;;;;;;;;;1871122;75;26686;-42
2021/12/18 08:20:48;;;;;;;0.90;0.17;;;;;;;;;;1876651;75;26234;-45
2021/12/18 08:23:16;;;;;;;0.20;0.20;;;;;;;;;;1878735;75;26760;-47
2021/12/18 08:25:43;;;;;;;2.95;0.40;;;;;;;;;;1876968;75;26212;-47
2021/12/18 08:28:10;;;;;;;0.90;0.40;;;;;;;;;;1873899;75;26324;-43
2021/12/18 08:30:38;;;;;;;0.93;0.40;;;;;;;;;;1866275;76;26740;-44
2021/12/18 08:33:06;;;;;;;3.33;0.30;;;;;;;;;;1873878;76;26300;-47
2021/12/18 08:35:34;;;;;;;2.50;0.47;;;;;;;;;;1881651;76;26780;-50
2021/12/18 08:38:02;;;;;;;2.20;0.50;;;;;;;;;;1881503;76;26305;-47
2021/12/18 08:40:30;;;;;;;1.15;0.42;;;;;;;;;;1881602;76;26687;-44
2021/12/18 08:42:58;;;;;;;2.05;0.20;;;;;;;;;;1881657;76;26294;-45
2021/12/18 08:45:26;;;;;;;2.37;0.62;;;;;;;;;;1881657;76;26282;-44
2021/12/18 08:47:53;;;;;;;2.95;0.47;;;;;;;;;;1881512;76;26207;-43
2021/12/18 08:50:21;;;;;;;0.70;0.20;;;;;;;;;;1881120;75;26792;-47
2021/12/18 08:52:49;;;;;;;2.67;0.85;;;;;;;;;;1872152;76;26253;-49
2021/12/18 08:55:17;;;;;;;1.60;0.65;;;;;;;;;;1881765;76;26750;-43
2021/12/18 08:57:45;;;;;;;1.57;0.80;;;;;;;;;;1881435;76;26230;-46
2021/12/18 09:00:14;;;;;;;3.33;0.90;;;;;;;;;;1881233;75;26191;-43
2021/12/18 09:02:42;;;;;;;1.67;1.10;;;;;;;;;;1892446;75;26258;-46
2021/12/18 09:05:09;;;;;;;2.05;1.12;;;;;;;;;;1885691;75;26795;-44
2021/12/18 09:07:37;;;;;;;4.83;1.27;;;;;;;;;;1878924;76;26300;-46
2021/12/18 09:10:06;;;;;;;3.05;1.30;;;;;;;;;;1880915;76;26603;-44
2021/12/18 09:12:33;;;;;;;3.80;1.50;;;;;;;;;;1880961;76;26277;-44
2021/12/18 09:15:00;;;;;;;5.83;3.00;;;;;;;;;;1862026;75;26334;-47
2021/12/18 09:17:28;;;;;;;4.87;1.67;;;;;;;;;;1879300;76;26791;-47
2021/12/18 09:19:55;;;;;;;2.75;1.70;;;;;;;;;;1877555;76;26262;-48
2021/12/18 09:22:23;;;;;;;2.02;1.77;;;;;;;;;;1869838;76;26243;-47
2021/12/18 09:24:50;;;;;;;3.67;1.90;;;;;;;;;;1875885;75;26597;-46
2021/12/18 09:27:19;;;;;;;4.22;2.30;;;;;;;;;;1874088;75;26262;-47
2021/12/18 09:29:46;;;;;;;4.47;2.00;;;;;;;;;;1874500;75;26286;-43
2021/12/18 09:32:14;;;;;;;7.00;2.12;;;;;;;;;;1869440;75;26337;-36
2021/12/18 09:34:41;;;;;;;4.22;2.00;;;;;;;;;;1871354;76;26194;-40
2021/12/18 09:37:08;;;;;;;6.05;2.37;;;;;;;;;;1873788;75;26230;-40
2021/12/18 09:39:36;;;;;;;2.37;2.05;;;;;;;;;;1870565;76;26733;-42
2021/12/18 09:42:04;;;;;;;4.80;2.50;;;;;;;;;;1870682;75;26336;-40
2021/12/18 09:44:33;;;;;;;5.55;2.12;;;;;;;;;;1877168;75;26325;-40
2021/12/18 09:47:00;;;;;;;2.50;2.00;;;;;;;;;;1878396;75;26295;-39
2021/12/18 09:49:29;;;;;;;3.77;2.20;;;;;;;;;;1871999;75;26701;-39
2021/12/18 09:51:56;;;;;;;2.83;1.90;;;;;;;;;;1874409;75;26270;-39
2021/12/18 09:54:23;;;;;;;4.22;2.08;;;;;;;;;;1875200;75;26651;-39
2021/12/18 09:56:51;;;;;;;3.58;2.00;;;;;;;;;;1874247;75;28141;-24
2021/12/18 09:59:20;;;;;;;7.30;2.40;;;;;;;;;;1875940;75;26308;-25
2021/12/18 10:01:47;;;;;;;5.03;2.00;;;;;;;;;;1878993;75;26257;-26
2021/12/18 10:04:25;;;;;;;3.58;1.75;;;;;;;;;;1878977;75;26297;-26
2021/12/18 10:06:52;;;;;;;4.08;2.10;;;;;;;;;;1879088;75;26289;-24
2021/12/18 10:09:21;;;;;;;5.12;2.00;;;;;;;;;;1878081;75;26713;-24
2021/12/18 10:11:50;;;;;;;2.52;1.90;;;;;;;;;;1877606;75;26338;-24
2021/12/18 10:14:18;;;;;;;4.50;1.92;;;;;;;;;;1876157;75;26338;-28
2021/12/18 10:16:47;;;;;;;5.78;2.98;;;;;;;;;;1876600;75;26780;-25
2021/12/18 10:19:16;;;;;;;3.47;1.95;;;;;;;;;;1879945;76;26242;-24
2021/12/18 10:21:47;;;;;;;3.42;1.85;;;;;;;;;;1872896;76;26411;-24
2021/12/18 10:24:17;;;;;;;2.20;1.87;;;;;;;;;;1865379;76;26765;-26
2021/12/18 10:26:45;;;;;;;3.00;1.65;;;;;;;;;;1877621;75;26300;-35
2021/12/18 10:29:31;;;;;;;3.67;2.00;;;;;;;;;;1873578;75;26346;-36
2021/12/18 10:32:06;;;;;;;3.33;1.77;;;;;;;;;;1877450;75;26255;-35
2021/12/18 10:34:34;;;;;;;3.10;1.70;;;;;;;;;;1870692;75;26250;-44
2021/12/18 10:37:08;;;;;;;3.47;1.60;;;;;;;;;;1878117;75;26239;-44
2021/12/18 10:39:37;;;;;;;3.65;1.60;;;;;;;;;;1875929;75;26383;-42
2021/12/18 10:42:22;;;;;;;4.78;1.60;;;;;;;;;;1877236;75;26242;-42
2021/12/18 10:45:00;;;;;;;2.50;1.50;;;;;;;;;;1878918;75;26777;-42
2021/12/18 10:47:29;;;;;;;2.33;1.42;;;;;;;;;;1875563;75;26855;-47
2021/12/18 10:49:57;;;;;;;2.45;1.40;;;;;;;;;;1870912;76;26697;-42
2021/12/18 10:52:37;;;;;;;4.40;1.30;;;;;;;;;;1874967;76;26336;-42
2021/12/18 10:55:05;;;;;;;2.33;1.15;;;;;;;;;;1876635;75;26243;-42
2021/12/18 10:57:32;;;;;;;1.27;1.17;;;;;;;;;;1877660;75;26883;-44
2021/12/18 10:59:59;;;;;;;4.25;1.82;;;;;;;;;;1878828;76;26299;-44
2021/12/18 11:02:28;;;;;;;2.40;1.45;;;;;;;;;;1873739;75;26341;-43
2021/12/18 11:04:56;;;;;;;1.92;1.40;;;;;;;;;;1877104;75;26263;-46
2021/12/18 11:07:28;;;;;;;2.50;1.30;;;;;;;;;;1857801;76;26304;-43
2021/12/18 11:10:13;;;;;;;2.52;1.27;;;;;;;;;;1876422;76;26203;-43
2021/12/18 11:15:14;;;;;;;1.00;1.00;;;;;;;;;;1879872;75;26440;-44
2021/12/18 11:17:42;;;;;;;1.17;1.10;;;;;;;;;;1878606;76;26686;-46
2021/12/18 11:20:10;;;;;;;1.32;1.10;;;;;;;;;;1868132;76;26264;-44
2021/12/18 11:22:37;;;;;;;3.12;1.15;;;;;;;;;;1874761;76;26807;-44
2021/12/18 11:25:06;;;;;;;1.07;0.98;;;;;;;;;;1878853;76;26263;-45
2021/12/18 11:27:35;;;;;;;1.20;1.10;;;;;;;;;;1878380;75;26343;-45
2021/12/18 11:30:08;;;;;;;1.35;1.07;;;;;;;;;;1872018;76;26757;-44
2021/12/18 11:32:37;;;;;;;2.98;1.07;;;;;;;;;;1880857;75;26002;-43
2021/12/18 11:35:07;;;;;;;1.40;0.80;;;;;;;;;;1879457;76;26377;-45
2021/12/18 11:37:36;;;;;;;1.55;1.00;;;;;;;;;;1878285;76;26203;-44
2021/12/18 11:40:04;;;;;;;1.22;0.80;;;;;;;;;;1860488;76;26694;-44
2021/12/18 11:42:33;;;;;;;1.10;0.93;;;;;;;;;;1874323;76;26270;-45
2021/12/18 11:45:02;;;;;;;0.90;0.90;;;;;;;;;;1879682;76;26340;-43
2021/12/18 11:47:31;;;;;;;0.72;0.72;;;;;;;;;;1880813;76;26282;-44
2021/12/18 11:49:59;;;;;;;1.37;1.00;;;;;;;;;;1876930;76;26306;-44
2021/12/18 11:52:28;;;;;;;1.35;0.95;;;;;;;;;;1877950;76;26259;-43
2021/12/18 11:54:57;;;;;;;0.68;0.68;;;;;;;;;;1879436;75;26207;-45
2021/12/18 11:57:44;;;;;;;0.80;0.80;;;;;;;;;;1882363;75;26316;-45
2021/12/18 12:00:13;;;;;;;0.80;0.70;;;;;;;;;;1876254;76;26336;-45
2021/12/18 12:02:48;;;;;;;0.70;0.70;;;;;;;;;;1870400;76;26197;-44
2021/12/18 12:05:16;;;;;;;0.53;0.53;;;;;;;;;;1870930;76;26333;-46
2021/12/18 12:07:45;;;;;;;0.75;0.62;;;;;;;;;;1859464;76;26743;-44
2021/12/18 12:11:03;;;;;;;1.50;0.70;;;;;;;;;;1875666;76;26250;-44
2021/12/18 12:12:56;;;;;;;0.65;0.65;;;;;;;;;;1859041;76;26264;-43
2021/12/18 12:15:25;;;;;;;0.60;0.60;;;;;;;;;;1877383;76;26258;-44
2021/12/18 12:17:59;;;;;;;0.70;0.70;;;;;;;;;;1868162;76;26179;-44
2021/12/18 12:20:34;;;;;;;0.60;0.60;;;;;;;;;;1888770;76;26243;-44
2021/12/18 12:23:02;;;;;;;0.40;0.40;;;;;;;;;;1889798;75;26826;-44
2021/12/18 12:25:34;;;;;;;0.45;0.45;;;;;;;;;;1873499;76;27066;-44
2021/12/18 12:28:03;;;;;;;0.40;0.40;;;;;;;;;;1887612;76;26718;-43
2021/12/18 12:30:36;;;;;;;0.45;0.45;;;;;;;;;;1855055;77;26266;-44
2021/12/18 12:33:05;;;;;;;0.35;0.35;;;;;;;;;;1856454;77;26282;-44
2021/12/18 12:35:34;;;;;;;0.60;0.60;;;;;;;;;;1877351;76;26293;-43
2021/12/18 12:38:01;;;;;;;0.35;0.35;;;;;;;;;;1885217;76;26866;-43
2021/12/18 12:40:31;;;;;;;0.47;0.47;;;;;;;;;;1890058;76;26202;-43
2021/12/18 12:43:06;;;;;;;0.70;0.50;;;;;;;;;;1890075;76;26300;-44
2021/12/18 12:45:37;;;;;;;0.40;0.33;;;;;;;;;;1889053;76;26284;-43
2021/12/18 12:48:05;;;;;;;0.40;0.40;;;;;;;;;;1886866;74;26333;-47
2021/12/18 12:50:33;;;;;;;0.40;0.40;;;;;;;;;;1880008;76;26787;-44
2021/12/18 12:53:02;;;;;;;0.40;0.40;;;;;;;;;;1887412;76;26246;-44
2021/12/18 12:55:31;;;;;;;0.30;0.30;;;;;;;;;;1815474;78;26302;-43
2021/12/18 12:58:00;;;;;;;0.30;0.30;;;;;;;;;;1850472;77;26253;-44
2021/12/18 13:00:29;;;;;;;0.30;0.30;;;;;;;;;;1847952;77;26413;-44
2021/12/18 13:03:11;;;;;;;2.20;0.35;;;;;;;;;;1845119;76;26807;-46
2021/12/18 13:05:46;;;;;;;0.40;0.40;;;;;;;;;;1847339;77;26597;-44
2021/12/18 13:08:13;;;;;;;0.65;0.42;;;;;;;;;;1828290;78;25988;-45
2021/12/18 13:10:42;;;;;;;0.40;0.40;;;;;;;;;;1843482;78;26302;-44
2021/12/18 13:13:10;;;;;;;0.23;0.20;;;;;;;;;;1843317;78;26308;-47
2021/12/18 13:15:54;;;;;;;2.42;0.40;;;;;;;;;;1842952;78;26268;-44
2021/12/18 13:18:23;;;;;;;0.35;0.30;;;;;;;;;;1836063;76;26326;-45
2021/12/18 13:20:55;;;;;;;0.20;0.20;;;;;;;;;;1843733;78;26303;-44
2021/12/18 13:23:22;;;;;;;0.72;0.40;;;;;;;;;;1841697;78;28458;-44
2021/12/18 13:25:50;;;;;;;0.72;0.20;;;;;;;;;;1833009;77;26220;-44
2021/12/18 13:28:18;;;;;;;0.88;0.35;;;;;;;;;;1838375;77;26273;-44
2021/12/18 13:30:48;;;;;;;0.57;0.37;;;;;;;;;;1841268;78;26284;-44
2021/12/18 13:33:15;;;;;;;2.45;0.40;;;;;;;;;;1819489;77;26339;-47
2021/12/18 13:35:43;;;;;;;2.02;0.30;;;;;;;;;;1836190;78;26413;-44
2021/12/18 13:38:12;;;;;;;0.95;0.33;;;;;;;;;;1820860;78;26277;-45
2021/12/18 13:40:41;;;;;;;0.30;0.30;;;;;;;;;;1839687;77;26380;-45
2021/12/18 13:43:10;;;;;;;0.80;0.30;;;;;;;;;;1835179;78;26261;-45
2021/12/18 13:45:55;;;;;;;0.30;0.30;;;;;;;;;;1824813;78;26219;-44
2021/12/18 13:48:27;;;;;;;2.58;0.37;;;;;;;;;;1829447;78;26270;-45
2021/12/18 13:50:56;;;;;;;0.80;0.55;;;;;;;;;;1836213;78;27154;-45
2021/12/18 13:53:23;;;;;;;1.65;0.40;;;;;;;;;;1842937;78;26318;-44
2021/12/18 13:55:57;;;;;;;0.20;0.20;;;;;;;;;;1842922;78;26302;-44
2021/12/18 13:58:26;;;;;;;0.20;0.20;;;;;;;;;;1843182;76;26597;-44
2021/12/18 14:00:56;;;;;;;0.90;0.25;;;;;;;;;;1843710;78;26674;-47
2021/12/18 14:03:29;;;;;;;1.55;0.53;;;;;;;;;;1843164;78;26771;-43
2021/12/18 14:05:58;;;;;;;1.20;0.30;;;;;;;;;;1842904;78;26277;-44
2021/12/18 14:08:26;;;;;;;0.23;0.23;;;;;;;;;;1850369;77;26396;-45
2021/12/18 14:10:54;;;;;;;3.60;0.35;;;;;;;;;;1851982;77;26247;-44
2021/12/18 14:13:22;;;;;;;0.42;0.30;;;;;;;;;;1852262;77;26259;-44
2021/12/18 14:15:49;;;;;;;1.77;0.20;;;;;;;;;;1851919;77;26717;-44
2021/12/18 14:18:35;;;;;;;1.75;0.30;;;;;;;;;;1848316;77;26333;-44
2021/12/18 14:21:04;;;;;;;2.27;0.33;;;;;;;;;;1850812;77;26218;-44
2021/12/18 14:23:35;;;;;;;0.98;0.30;;;;;;;;;;1848525;77;27942;-44
2021/12/18 14:26:20;;;;;;;0.10;0.10;;;;;;;;;;1848275;77;26533;-44
2021/12/18 14:28:49;;;;;;;0.30;0.30;;;;;;;;;;1851050;76;26222;-46
2021/12/18 14:31:24;;;;;;;0.30;0.30;;;;;;;;;;1854265;77;26662;-44
2021/12/18 14:33:53;;;;;;;0.45;0.30;;;;;;;;;;1852851;77;26278;-43
2021/12/18 14:36:21;;;;;;;0.85;0.20;;;;;;;;;;1847653;77;26723;-45
2021/12/18 14:38:58;;;;;;;1.12;0.50;;;;;;;;;;1849447;77;26832;-43
2021/12/18 14:41:25;;;;;;;1.30;0.30;;;;;;;;;;1853181;77;26273;-44
2021/12/18 14:44:00;;;;;;;0.78;0.30;;;;;;;;;;1853213;77;26756;-44
2021/12/18 14:46:28;;;;;;;0.37;0.35;;;;;;;;;;1854265;77;26743;-43
2021/12/18 14:48:55;;;;;;;0.20;0.20;;;;;;;;;;1832990;77;26364;-44
2021/12/18 14:51:28;;;;;;;0.30;0.30;;;;;;;;;;1823600;78;26306;-45
2021/12/18 14:54:00;;;;;;;0.30;0.30;;;;;;;;;;1834458;76;26272;-46
2021/12/18 14:56:27;;;;;;;0.20;0.20;;;;;;;;;;1800753;79;26355;-45
2021/12/18 14:58:54;;;;;;;1.92;0.47;;;;;;;;;;1820283;78;26279;-44
2021/12/18 15:01:23;;;;;;;0.20;0.20;;;;;;;;;;1816426;78;26273;-44
2021/12/18 15:03:52;;;;;;;0.70;0.40;;;;;;;;;;1841220;78;26301;-46
2021/12/18 15:06:23;;;;;;;0.47;0.42;;;;;;;;;;1841252;78;26705;-45
2021/12/18 15:08:59;;;;;;;1.95;0.60;;;;;;;;;;1838957;78;26903;-44
2021/12/18 15:11:28;;;;;;;0.20;0.15;;;;;;;;;;1824810;78;26311;-44
2021/12/18 15:13:57;;;;;;;0.80;0.40;;;;;;;;;;1812483;78;26361;-45
2021/12/18 15:16:26;;;;;;;0.30;0.30;;;;;;;;;;1804087;78;26280;-45
2021/12/18 15:18:55;;;;;;;1.47;0.50;;;;;;;;;;1822739;78;26326;-44
2021/12/18 15:21:23;;;;;;;0.75;0.40;;;;;;;;;;1819400;78;26789;-44
2021/12/18 15:23:50;;;;;;;0.30;0.30;;;;;;;;;;1822984;78;26271;-44
2021/12/18 15:26:18;;;;;;;0.40;0.40;;;;;;;;;;1824595;78;27718;-43
2021/12/18 15:28:45;;;;;;;0.60;0.60;;;;;;;;;;1825799;78;26361;-46